Aérodrome :
LOGIN :

S'inscrire | Disclaimer

   EN    FR    IT 

 










Légende :    VFR   VFR Marginal   IFR   IFR Intensif   IFR Très Intensif
Visi : 
Plafond : 
>= 8 km
>= 3000ft
5 à 8 km
1000 à 3000 ft
1500m à 5 km
500 à 1000 ft
800 à 1500m
200 à 500 ft
< 800m
< 200 ft
Symboles :   Orages  Brouillard  Fortes neiges  Fortes précipitations  Vent > 20 kt
SIGMETs :   Divers  Orages  Givrage  Turbulence  Onde Orograph.  Cendres Volcan.






- Altitude de l'aérodrome : 1649 ft
- Code IATA : HHN


EDFH - Frankfurt-Hahn Rhineland-Palatinate

DERNIER METAR :
  • 200750Z 28009KT 4000 -SHSN BKN002 BKN010CB 00/00 Q1024

METARs EXPIRÉS :
  • 200720Z 28010KT 7000 BKN002 00/00 Q1023 RESHSN
  • 200650Z 27010KT 260V360 2500 SHSN BR BKN002 BKN009CB 00/00 Q1023
  • 200620Z 28011KT 9000 BKN002 00/00 Q1023
  • 200550Z 28009KT 9999 SCT003 BKN016 01/00 Q1023
  • 200520Z 27009KT 9999 BKN039 00/00 Q1023

TAF AMD TAF EDFH
Valide du 20 à 07h jusqu'au 21 à 06h UTC


200733Z 2007/2106 28012KT 7000 BKN015
TEMPO 2007/2021 1200 SHSN BKN002 BKN012CB
PROB30
TEMPO 2021/2106 4000 -SN BKN005



MET'MAP, la Météo Aéronautique d'un coup d'oeil ! - Copyright ORBIFLY Décembre 2007 - Disclaimer

ORBIFLY MET'MAP TEAM :

Programmation & Développement : Alexandra Zaïnal
Sur une idée originale de : Baudouin d'Aumeries
Assistance à la programmation : Marc-Olivier Méhu
Soutien technique & logistique : Manuel Goepfert

Contact : metmap@orbifly.com




SOURCES & CREDITS :

   NOAA